createdAt,value
2018-04-10T00:02:02.460Z,14.40
2018-04-10T00:04:33.865Z,14.40
2018-04-10T00:07:05.055Z,14.30
2018-04-10T00:09:37.241Z,14.30
2018-04-10T00:12:09.185Z,14.20
2018-04-10T00:14:40.616Z,14.20
2018-04-10T00:17:11.784Z,14.30
2018-04-10T00:19:43.103Z,14.20
2018-04-10T00:22:14.275Z,14.20
2018-04-10T00:24:46.259Z,14.10
2018-04-10T00:27:18.200Z,14.10
2018-04-10T00:29:49.446Z,14.10
2018-04-10T00:32:21.432Z,14.00
2018-04-10T00:34:53.411Z,14.00
2018-04-10T00:37:24.635Z,14.00
2018-04-10T00:39:56.629Z,14.00
2018-04-10T00:42:27.850Z,14.00
2018-04-10T00:44:59.080Z,14.00
2018-04-10T00:47:31.059Z,13.90
2018-04-10T00:50:02.266Z,13.90
2018-04-10T00:52:33.478Z,13.90
2018-04-10T00:55:04.963Z,13.90
2018-04-10T00:57:36.198Z,13.90
2018-04-10T01:00:08.219Z,13.90
2018-04-10T01:02:39.430Z,13.80
2018-04-10T01:05:11.404Z,13.80
2018-04-10T01:07:42.630Z,13.80
2018-04-10T01:10:14.570Z,13.70
2018-04-10T01:12:45.822Z,13.70
2018-04-10T01:15:17.795Z,13.60
2018-04-10T01:17:49.775Z,13.60
2018-04-10T01:20:21.247Z,13.70
2018-04-10T01:22:52.474Z,13.60
2018-04-10T01:25:23.743Z,13.60
2018-04-10T01:27:54.955Z,13.60
2018-04-10T01:30:26.931Z,13.50
2018-04-10T01:32:58.202Z,13.50
2018-04-10T01:35:29.449Z,13.50
2018-04-10T01:38:00.770Z,13.60
2018-04-10T01:40:32.028Z,13.60
2018-04-10T01:43:03.276Z,13.60
2018-04-10T01:45:34.458Z,13.60
2018-04-10T01:48:06.435Z,13.60
2018-04-10T01:50:38.376Z,13.50
2018-04-10T01:53:09.676Z,13.50
2018-04-10T01:55:41.114Z,13.50
2018-04-10T01:58:12.285Z,13.50
2018-04-10T02:00:43.542Z,13.50
2018-04-10T02:03:14.715Z,13.50
2018-04-10T02:05:46.666Z,13.50
2018-04-10T02:08:17.929Z,13.50
2018-04-10T02:10:49.087Z,13.50
2018-04-10T02:13:21.027Z,13.50
2018-04-10T02:15:53.012Z,13.50
2018-04-10T02:18:24.201Z,13.50
2018-04-10T02:20:55.734Z,13.50
2018-04-10T02:23:26.930Z,13.40
2018-04-10T02:25:58.865Z,13.30
2018-04-10T02:28:30.827Z,13.30
2018-04-10T02:31:02.023Z,13.30
2018-04-10T02:33:33.223Z,13.20
2018-04-10T02:36:05.149Z,13.20
2018-04-10T02:38:36.394Z,13.10
2018-04-10T02:41:07.674Z,13.10
2018-04-10T02:43:39.649Z,13.00
2018-04-10T02:46:11.652Z,13.00
2018-04-10T02:48:43.093Z,13.00
2018-04-10T02:51:14.277Z,12.90
2018-04-10T02:53:45.706Z,13.00
2018-04-10T02:56:16.885Z,13.00
2018-04-10T02:58:48.097Z,12.90
2018-04-10T03:01:19.367Z,13.00
2018-04-10T03:03:50.577Z,12.90
2018-04-10T03:06:21.772Z,12.90
2018-04-10T03:08:53.729Z,12.80
2018-04-10T03:11:24.970Z,12.80
2018-04-10T03:13:56.138Z,12.80
2018-04-10T03:16:27.382Z,12.80
2018-04-10T03:18:58.869Z,12.80
2018-04-10T03:21:30.035Z,12.70
2018-04-10T03:24:01.564Z,12.70
2018-04-10T03:26:32.789Z,12.70
2018-04-10T03:29:04.342Z,12.70
2018-04-10T03:31:35.526Z,12.70
2018-04-10T03:34:07.490Z,12.70
2018-04-10T03:36:38.723Z,12.70
2018-04-10T03:39:09.969Z,12.60
2018-04-10T03:41:41.290Z,12.60
2018-04-10T03:44:12.699Z,12.60
2018-04-10T03:46:44.667Z,12.60
2018-04-10T03:49:15.946Z,12.60
2018-04-10T03:51:47.120Z,12.60
2018-04-10T03:54:18.458Z,12.60
2018-04-10T03:56:49.618Z,12.70
2018-04-10T03:59:20.887Z,12.70
2018-04-10T04:01:52.167Z,12.70
2018-04-10T04:04:23.402Z,12.70
2018-04-10T04:06:55.461Z,12.70
2018-04-10T04:09:27.040Z,12.70
2018-04-10T04:11:58.277Z,12.80
2018-04-10T04:14:30.325Z,12.80
2018-04-10T04:17:13.935Z,12.80
2018-04-10T04:19:57.556Z,12.80
2018-04-10T04:22:38.618Z,12.90
2018-04-10T04:25:10.959Z,12.90
2018-04-10T04:27:42.170Z,12.90
2018-04-10T04:30:13.370Z,12.90
2018-04-10T04:32:44.879Z,12.90
2018-04-10T04:35:16.077Z,12.90
2018-04-10T04:37:48.043Z,13.00
2018-04-10T04:40:19.959Z,13.00
2018-04-10T04:42:51.216Z,13.00
2018-04-10T04:45:22.466Z,13.00
2018-04-10T04:47:53.706Z,13.10
2018-04-10T04:50:24.881Z,13.10
2018-04-10T04:52:56.834Z,13.10
2018-04-10T04:55:28.038Z,13.10
2018-04-10T04:57:59.250Z,13.20
2018-04-10T05:00:30.458Z,13.10
2018-04-10T05:03:02.500Z,13.20
2018-04-10T05:05:33.758Z,13.20
2018-04-10T05:08:05.004Z,13.30
2018-04-10T05:10:36.438Z,13.30
2018-04-10T05:13:07.665Z,13.30
2018-04-10T05:15:38.866Z,13.30
2018-04-10T05:18:10.799Z,13.30
2018-04-10T05:20:42.016Z,13.30
2018-04-10T05:23:13.463Z,13.30
2018-04-10T05:25:44.686Z,13.40
2018-04-10T05:28:15.950Z,13.40
2018-04-10T05:30:47.129Z,13.40
2018-04-10T05:33:18.343Z,13.40
2018-04-10T05:35:49.635Z,13.40
2018-04-10T05:38:21.607Z,13.40
2018-04-10T05:40:52.842Z,13.40
2018-04-10T05:43:24.843Z,13.60
2018-04-10T05:45:56.054Z,13.50
2018-04-10T05:48:27.303Z,13.60
2018-04-10T05:50:59.344Z,13.70
2018-04-10T05:53:30.509Z,13.70
2018-04-10T05:56:01.754Z,13.70
2018-04-10T05:58:32.952Z,13.80
2018-04-10T06:01:04.213Z,13.80
2018-04-10T06:03:35.543Z,13.90
2018-04-10T06:06:06.750Z,13.90
2018-04-10T06:08:37.989Z,13.90
2018-04-10T06:11:09.238Z,13.90
2018-04-10T06:13:40.454Z,14.00
2018-04-10T06:16:12.448Z,14.10
2018-04-10T06:18:43.630Z,14.00
2018-04-10T06:21:14.905Z,14.00
2018-04-10T06:23:46.889Z,14.10
2018-04-10T06:26:18.133Z,14.10
2018-04-10T06:28:49.368Z,14.20
2018-04-10T06:31:21.046Z,14.20
2018-04-10T06:33:52.252Z,14.30
2018-04-10T06:36:24.253Z,14.40
2018-04-10T06:38:55.435Z,14.40
2018-04-10T06:41:26.673Z,14.40
2018-04-10T06:43:58.075Z,14.60
2018-04-10T06:46:29.343Z,14.60
2018-04-10T06:49:00.539Z,14.60
2018-04-10T06:51:32.609Z,14.70
2018-04-10T06:54:03.954Z,14.70
2018-04-10T06:56:35.438Z,14.70
2018-04-10T06:59:06.619Z,14.70
2018-04-10T07:01:38.260Z,14.80
2018-04-10T07:04:09.607Z,14.80
2018-04-10T07:06:40.972Z,14.80
2018-04-10T07:09:12.397Z,14.90
2018-04-10T07:11:43.592Z,14.90
2018-04-10T07:14:14.942Z,15.00
2018-04-10T07:16:46.130Z,15.00
2018-04-10T07:19:17.606Z,15.00
2018-04-10T07:21:49.555Z,15.10
2018-04-10T07:24:21.597Z,15.20
2018-04-10T07:26:52.842Z,15.20
2018-04-10T07:29:24.049Z,15.30
2018-04-10T07:31:55.331Z,15.30
2018-04-10T07:34:26.584Z,15.40
2018-04-10T07:36:58.023Z,15.40
2018-04-10T07:39:29.238Z,15.50
2018-04-10T07:42:00.540Z,15.60
2018-04-10T07:44:32.070Z,15.60
2018-04-10T07:47:03.305Z,15.70
2018-04-10T07:49:34.530Z,15.80
2018-04-10T07:52:05.885Z,15.90
2018-04-10T07:54:37.104Z,16.00
2018-04-10T07:57:08.359Z,16.10
2018-04-10T07:59:39.612Z,16.20
2018-04-10T08:02:10.961Z,16.20
2018-04-10T08:04:42.247Z,16.20
2018-04-10T08:07:14.267Z,16.30
2018-04-10T08:09:45.511Z,16.30
2018-04-10T08:12:16.790Z,16.30
2018-04-10T08:14:48.055Z,16.40
2018-04-10T08:17:19.268Z,16.50
2018-04-10T08:19:50.497Z,16.70
2018-04-10T08:22:21.970Z,16.90
2018-04-10T08:24:53.218Z,16.90
2018-04-10T08:27:24.485Z,16.90
2018-04-10T08:29:55.771Z,17.00
2018-04-10T08:32:27.444Z,17.00
2018-04-10T08:34:58.714Z,17.10
2018-04-10T08:37:29.970Z,17.00
2018-04-10T08:40:01.929Z,17.00
2018-04-10T08:42:33.170Z,17.00
2018-04-10T08:45:04.742Z,17.00
2018-04-10T08:47:36.302Z,17.10
2018-04-10T08:50:08.306Z,17.40
2018-04-10T08:52:39.524Z,17.40
2018-04-10T08:55:10.759Z,17.50
2018-04-10T08:57:42.781Z,17.50
2018-04-10T09:00:14.109Z,17.50
2018-04-10T09:02:45.374Z,17.60
2018-04-10T09:05:17.493Z,17.80
2018-04-10T09:07:48.773Z,17.70
2018-04-10T09:10:20.010Z,17.80
2018-04-10T09:12:51.262Z,17.80
2018-04-10T09:15:22.569Z,17.90
2018-04-10T09:17:53.800Z,18.00
2018-04-10T09:20:25.781Z,18.30
2018-04-10T09:22:57.803Z,18.40
2018-04-10T09:25:29.829Z,18.50
2018-04-10T09:28:01.281Z,18.40
2018-04-10T09:30:32.542Z,18.60
2018-04-10T09:33:03.818Z,18.60
2018-04-10T09:35:35.056Z,18.70
2018-04-10T09:38:06.550Z,18.80
2018-04-10T09:40:37.736Z,18.90
2018-04-10T09:43:09.793Z,19.00
2018-04-10T09:45:41.829Z,19.20
2018-04-10T09:48:13.231Z,19.10
2018-04-10T09:50:44.421Z,19.30
2018-04-10T09:53:15.959Z,19.40
2018-04-10T09:55:47.158Z,19.50
2018-04-10T09:58:18.534Z,19.60
2018-04-10T10:00:49.874Z,19.70
2018-04-10T10:03:21.295Z,19.80
2018-04-10T10:05:52.759Z,19.80
2018-04-10T10:08:24.060Z,19.90
2018-04-10T10:10:55.280Z,20.00
2018-04-10T10:13:26.548Z,20.10
2018-04-10T10:15:57.863Z,20.00
2018-04-10T10:18:29.330Z,20.00
2018-04-10T10:21:00.522Z,20.10
2018-04-10T10:23:32.511Z,20.50
2018-04-10T10:26:03.874Z,20.40
2018-04-10T10:28:35.809Z,20.70
2018-04-10T10:31:07.016Z,20.70
2018-04-10T10:33:38.239Z,20.80
2018-04-10T10:36:09.536Z,20.90
2018-04-10T10:38:42.362Z,21.00
2018-04-10T10:41:13.689Z,21.00
2018-04-10T10:43:45.713Z,21.10
2018-04-10T10:46:17.063Z,21.10
2018-04-10T10:48:49.146Z,21.10
2018-04-10T10:51:20.529Z,21.10
2018-04-10T10:53:51.760Z,21.10
2018-04-10T10:56:23.027Z,21.20
2018-04-10T10:58:54.302Z,21.30
2018-04-10T11:01:25.490Z,21.30
2018-04-10T11:03:56.762Z,21.40
2018-04-10T11:06:28.218Z,21.40
2018-04-10T11:08:59.489Z,21.50
2018-04-10T11:11:30.686Z,21.40
2018-04-10T11:14:01.988Z,21.10
2018-04-10T11:16:33.299Z,21.10
2018-04-10T11:19:04.506Z,20.70
2018-04-10T11:21:35.752Z,21.00
2018-04-10T11:24:06.990Z,21.10
2018-04-10T11:26:39.008Z,21.40
2018-04-10T11:29:10.392Z,21.40
2018-04-10T11:31:41.689Z,21.40
2018-04-10T11:34:13.004Z,21.50
2018-04-10T11:36:44.225Z,21.60
2018-04-10T11:39:15.745Z,21.80
2018-04-10T11:41:48.399Z,21.80
2018-04-10T13:06:21.718Z,21.80
2018-04-10T13:08:53.016Z,23.20
2018-04-10T13:11:24.253Z,23.20
2018-04-10T13:13:55.655Z,23.30
2018-04-10T13:16:26.925Z,23.30
2018-04-10T13:18:58.910Z,23.20
2018-04-10T13:21:30.202Z,23.20
2018-04-10T13:24:01.399Z,23.30
2018-04-10T13:26:32.626Z,23.40
2018-04-10T13:29:04.247Z,23.40
2018-04-10T13:31:35.460Z,23.50
2018-04-10T13:34:06.861Z,23.50
2018-04-10T13:36:39.105Z,23.60
2018-04-10T13:39:10.457Z,23.60
2018-04-10T13:41:41.778Z,23.50
2018-04-10T13:44:13.072Z,23.50
2018-04-10T13:46:44.341Z,23.50
2018-04-10T13:49:15.564Z,23.40
2018-04-10T13:51:46.824Z,23.20
2018-04-10T13:54:18.093Z,23.20
2018-04-10T13:56:49.320Z,23.20
2018-04-10T13:59:20.567Z,23.20
2018-04-10T14:01:53.262Z,23.30
2018-04-10T14:04:25.254Z,23.30
2018-04-10T14:06:56.523Z,23.30
2018-04-10T14:09:28.454Z,23.30
2018-04-10T14:12:00.261Z,23.30
2018-04-10T14:14:31.552Z,23.40
2018-04-10T14:17:02.801Z,23.50
2018-04-10T14:19:34.792Z,23.70
2018-04-10T14:22:06.272Z,23.60
2018-04-10T14:24:37.478Z,23.70
2018-04-10T14:27:08.731Z,23.70
2018-04-10T14:29:40.647Z,23.60
2018-04-10T14:32:11.910Z,23.50
2018-04-10T14:34:43.264Z,23.60
2018-04-10T14:37:14.941Z,23.60
2018-04-10T14:39:46.203Z,23.70
2018-04-10T14:42:17.450Z,23.70
2018-04-10T14:44:48.929Z,23.70
2018-04-10T14:47:20.363Z,23.80
2018-04-10T14:49:51.584Z,23.70
2018-04-10T14:52:22.805Z,23.70
2018-04-10T14:54:54.833Z,23.60
2018-04-10T14:57:26.262Z,23.60
2018-04-10T14:59:57.461Z,23.60
2018-04-10T15:02:28.658Z,23.50
2018-04-10T15:04:59.884Z,23.50
2018-04-10T15:07:31.125Z,23.60
2018-04-10T15:10:02.412Z,23.50
2018-04-10T15:12:34.370Z,23.60
2018-04-10T15:15:05.753Z,23.50
2018-04-10T15:17:37.771Z,23.70
2018-04-10T15:20:08.987Z,23.70
2018-04-10T15:22:40.469Z,23.60
2018-04-10T15:25:11.650Z,23.60
2018-04-10T15:27:43.649Z,23.50
2018-04-10T15:30:14.871Z,23.40
2018-04-10T15:32:46.162Z,23.40
2018-04-10T15:35:17.750Z,23.30
2018-04-10T15:37:49.700Z,23.30
2018-04-10T15:40:29.115Z,23.30
2018-04-10T15:43:01.124Z,23.20
2018-04-10T15:45:32.357Z,23.20
2018-04-10T15:48:04.601Z,23.20
2018-04-10T15:50:35.829Z,23.20
2018-04-10T15:53:07.068Z,23.20
2018-04-10T15:55:38.570Z,23.10
2018-04-10T15:58:09.840Z,23.10
2018-04-10T16:00:41.451Z,23.10
2018-04-10T16:03:12.692Z,23.20
2018-04-10T16:05:43.997Z,23.20
2018-04-10T16:08:15.223Z,23.20
2018-04-10T16:10:46.744Z,23.20
2018-04-10T16:13:18.254Z,23.20
2018-04-10T16:15:49.509Z,23.20
2018-04-10T16:18:20.766Z,23.20
2018-04-10T16:20:52.040Z,23.10
2018-04-10T16:23:23.341Z,23.10
2018-04-10T16:25:54.651Z,23.10
2018-04-10T16:28:26.217Z,23.10
2018-04-10T16:30:57.491Z,23.00
2018-04-10T16:33:28.740Z,22.90
2018-04-10T16:35:59.937Z,22.90
2018-04-10T16:38:31.312Z,22.90
2018-04-10T16:41:02.911Z,22.80
2018-04-10T16:43:34.917Z,22.60
2018-04-10T16:46:06.151Z,22.60
2018-04-10T16:48:37.391Z,22.60
2018-04-10T16:51:08.619Z,22.60
2018-04-10T16:53:39.868Z,22.50
2018-04-10T16:56:12.159Z,22.40
2018-04-10T16:58:43.460Z,22.40
2018-04-10T17:01:15.911Z,22.30
2018-04-10T17:03:47.108Z,22.30
2018-04-10T17:06:18.607Z,22.20
2018-04-10T17:08:49.818Z,22.20
2018-04-10T17:11:21.054Z,22.10
2018-04-10T17:13:52.297Z,22.10
2018-04-10T17:16:23.613Z,22.00
2018-04-10T17:18:55.884Z,22.00
2018-04-10T17:21:27.845Z,22.00
2018-04-10T17:23:59.093Z,21.90
2018-04-10T17:26:31.050Z,21.80
2018-04-10T17:29:03.061Z,21.80
2018-04-10T17:31:34.251Z,21.80
2018-04-10T17:34:05.511Z,21.80
2018-04-10T17:36:37.543Z,21.70
2018-04-10T17:39:08.798Z,21.70
2018-04-10T17:41:40.010Z,21.60
2018-04-10T17:44:11.339Z,21.60
2018-04-10T17:46:42.562Z,21.60
2018-04-10T17:49:13.824Z,21.50
2018-04-10T17:51:45.034Z,21.50
2018-04-10T17:54:16.996Z,21.40
2018-04-10T17:56:49.045Z,21.40
2018-04-10T17:59:21.010Z,21.30
2018-04-10T18:01:52.933Z,21.20
2018-04-10T18:04:24.195Z,21.20
2018-04-10T18:06:56.182Z,20.40
2018-04-10T18:09:28.380Z,20.10
2018-04-10T18:11:59.594Z,20.10
2018-04-10T18:14:30.811Z,19.80
2018-04-10T18:17:02.170Z,19.70
2018-04-10T18:19:34.209Z,19.40
2018-04-10T18:22:05.385Z,19.30
2018-04-10T18:24:37.328Z,19.10
2018-04-10T18:27:08.518Z,19.00
2018-04-10T18:29:39.777Z,18.80
2018-04-10T18:32:10.947Z,18.60
2018-04-10T18:34:42.142Z,18.50
2018-04-10T18:37:13.378Z,18.30
2018-04-10T18:39:45.323Z,18.00
2018-04-10T18:42:17.317Z,17.80
2018-04-10T18:44:49.306Z,17.70
2018-04-10T18:47:20.517Z,17.70
2018-04-10T18:49:52.563Z,17.40
2018-04-10T18:52:24.159Z,17.40
2018-04-10T18:54:55.374Z,17.30
2018-04-10T18:57:26.625Z,17.10
2018-04-10T18:59:57.867Z,17.10
2018-04-10T19:02:29.051Z,16.90
2018-04-10T19:05:00.283Z,16.80
2018-04-10T19:07:31.462Z,16.70
2018-04-10T19:10:02.699Z,16.60
2018-04-10T19:12:33.846Z,16.50
2018-04-10T19:15:05.105Z,16.50
2018-04-10T19:17:37.079Z,16.30
2018-04-10T19:20:08.314Z,16.30
2018-04-10T19:22:40.266Z,16.10
2018-04-10T19:25:11.468Z,16.10
2018-04-10T19:27:42.690Z,16.00
2018-04-10T19:30:13.899Z,15.90
2018-04-10T19:32:45.184Z,15.80
2018-04-10T19:35:16.688Z,15.70
2018-04-10T19:37:48.035Z,15.70
2018-04-10T19:40:19.209Z,15.70
2018-04-10T19:42:51.162Z,15.70
2018-04-10T19:45:23.086Z,15.70
2018-04-10T19:47:54.281Z,15.60
2018-04-10T19:50:25.458Z,15.70
2018-04-10T19:52:56.717Z,15.70
2018-04-10T19:55:27.937Z,15.60
2018-04-10T19:57:59.213Z,15.60
2018-04-10T20:00:30.438Z,15.60
2018-04-10T20:03:01.731Z,15.50
2018-04-10T20:05:33.780Z,15.30
2018-04-10T20:08:05.060Z,15.30
2018-04-10T20:10:36.277Z,15.20
2018-04-10T20:13:08.218Z,15.10
2018-04-10T20:15:39.427Z,15.10
2018-04-10T20:18:10.765Z,15.10
2018-04-10T20:20:41.950Z,15.00
2018-04-10T20:23:13.174Z,15.00
2018-04-10T20:25:44.326Z,15.00
2018-04-10T20:28:15.762Z,14.90
2018-04-10T20:30:46.997Z,14.80
2018-04-10T20:33:18.245Z,14.70
2018-04-10T20:35:49.443Z,14.70
2018-04-10T20:38:21.649Z,14.60
2018-04-10T20:40:52.802Z,14.60
2018-04-10T20:43:24.046Z,14.70
2018-04-10T20:45:55.232Z,14.60
2018-04-10T20:48:27.260Z,14.50
2018-04-10T20:50:58.471Z,14.50
2018-04-10T20:53:29.920Z,14.50
2018-04-10T20:56:01.087Z,14.40
2018-04-10T20:58:32.509Z,14.50
2018-04-10T21:01:03.723Z,14.40
2018-04-10T21:03:35.646Z,14.40
2018-04-10T21:06:07.806Z,14.40
2018-04-10T21:08:39.000Z,14.40
2018-04-10T21:11:10.900Z,14.40
2018-04-10T21:13:42.110Z,14.40
2018-04-10T21:16:14.038Z,14.40
2018-04-10T21:18:46.430Z,14.40
2018-04-10T21:21:18.412Z,14.40
2018-04-10T21:23:49.621Z,14.40
2018-04-10T21:26:21.657Z,14.30
2018-04-10T21:28:52.847Z,14.20
2018-04-10T21:31:24.081Z,14.30
2018-04-10T21:33:55.309Z,14.20
2018-04-10T21:36:26.557Z,14.10
2018-04-10T21:38:57.878Z,14.10
2018-04-10T21:41:29.053Z,14.00
2018-04-10T21:44:00.442Z,13.90
2018-04-10T21:46:31.944Z,13.90
2018-04-10T21:49:03.161Z,13.90
2018-04-10T21:51:34.361Z,13.80
2018-04-10T21:54:05.765Z,13.90
2018-04-10T21:56:36.926Z,13.80
2018-04-10T21:59:08.267Z,13.80
2018-04-10T22:01:39.445Z,13.80
2018-04-10T22:04:10.687Z,13.80
2018-04-10T22:06:41.969Z,13.80
2018-04-10T22:09:13.398Z,13.90
2018-04-10T22:11:44.614Z,13.90
2018-04-10T22:14:15.889Z,13.90
2018-04-10T22:16:47.097Z,13.90
2018-04-10T22:19:18.371Z,13.80
2018-04-10T22:21:49.596Z,13.80
2018-04-10T22:24:20.809Z,13.80
2018-04-10T22:26:52.000Z,13.80
2018-04-10T22:29:23.947Z,13.80
2018-04-10T22:31:55.146Z,13.80
2018-04-10T22:34:26.341Z,13.80
2018-04-10T22:36:57.558Z,13.80
2018-04-10T22:39:28.996Z,13.80
2018-04-10T22:42:00.944Z,13.80
2018-04-10T22:44:32.222Z,13.80
2018-04-10T22:47:04.089Z,13.80
2018-04-10T22:49:35.303Z,13.80
2018-04-10T22:52:07.235Z,13.80
2018-04-10T22:54:39.231Z,13.80
2018-04-10T22:57:11.156Z,13.80
2018-04-10T22:59:42.487Z,13.80
2018-04-10T23:02:14.024Z,13.80
2018-04-10T23:04:45.198Z,13.70
2018-04-10T23:07:16.418Z,13.70
2018-04-10T23:09:47.583Z,13.80
2018-04-10T23:12:18.827Z,13.80
2018-04-10T23:14:49.994Z,13.80
2018-04-10T23:17:22.337Z,13.80
2018-04-10T23:19:53.530Z,13.80
2018-04-10T23:22:25.645Z,13.80
2018-04-10T23:24:56.819Z,13.80
2018-04-10T23:27:28.947Z,13.80
2018-04-10T23:30:00.156Z,13.70
2018-04-10T23:32:31.329Z,13.80
2018-04-10T23:35:03.270Z,13.60
2018-04-10T23:37:35.243Z,13.60
2018-04-10T23:40:07.254Z,13.60
2018-04-10T23:42:38.451Z,13.60
2018-04-10T23:45:10.487Z,13.50
2018-04-10T23:47:41.670Z,13.50
2018-04-10T23:50:12.862Z,13.50
2018-04-10T23:52:44.036Z,13.40
2018-04-10T23:55:15.980Z,13.40
2018-04-10T23:57:47.154Z,13.40
